Time;durP1;ratioP1;P1;durP2;ratioP2;P2;SDS_P1;SDS_P2;PMS_P1;PMS_P2;Temp;Humidity;BMP_temperature;BMP_pressure;BME280_temperature;BME280_humidity;BME280_pressure;Samples;Min_cycle;Max_cycle;Signal;HPM_P1;HPM_P2
2021/07/29 00:02:07;;;;;;;0.10;0.10;;;;;;;;;;4826704;29;20046;-87
2021/07/29 00:04:33;;;;;;;0.15;0.15;;;;;;;;;;4826653;29;20101;-88
2021/07/29 00:06:59;;;;;;;0.10;0.10;;;;;;;;;;4826502;29;20046;-87
2021/07/29 00:09:25;;;;;;;0.10;0.10;;;;;;;;;;4826658;29;20061;-87
2021/07/29 00:11:51;;;;;;;0.10;0.10;;;;;;;;;;4841668;29;20038;-87
2021/07/29 00:14:17;;;;;;;0.10;0.10;;;;;;;;;;4841651;29;20163;-87
2021/07/29 00:16:47;;;;;;;0.10;0.10;;;;;;;;;;4826255;29;20049;-88
2021/07/29 00:19:13;;;;;;;0.10;0.10;;;;;;;;;;4826333;29;20510;-88
2021/07/29 00:21:39;;;;;;;0.10;0.10;;;;;;;;;;4841693;29;20479;-87
2021/07/29 00:24:05;;;;;;;0.10;0.10;;;;;;;;;;4841545;29;20049;-87
2021/07/29 00:26:31;;;;;;;0.20;0.20;;;;;;;;;;4826195;29;20571;-87
2021/07/29 00:28:57;;;;;;;0.10;0.10;;;;;;;;;;4826282;29;20125;-87
2021/07/29 00:31:30;;;;;;;0.10;0.10;;;;;;;;;;4826430;29;20049;-87
2021/07/29 00:33:56;;;;;;;0.10;0.10;;;;;;;;;;4826141;29;20065;-87
2021/07/29 00:36:22;;;;;;;0.10;0.10;;;;;;;;;;4841150;29;20073;-87
2021/07/29 00:38:48;;;;;;;0.10;0.10;;;;;;;;;;4825943;29;20046;-89
2021/07/29 00:41:14;;;;;;;0.10;0.10;;;;;;;;;;4826319;29;20479;-89
2021/07/29 00:43:41;;;;;;;0.10;0.10;;;;;;;;;;4826229;29;20053;-89
2021/07/29 00:46:07;;;;;;;0.28;0.28;;;;;;;;;;4826452;29;20121;-90
2021/07/29 00:48:39;;;;;;;;;;;;;;;;;;4827491;29;20041;-88
2021/07/29 00:51:06;;;;;;;0.20;0.20;;;;;;;;;;4826435;29;19928;-90
2021/07/29 00:53:32;;;;;;;0.10;0.10;;;;;;;;;;4826437;29;20077;-90
2021/07/29 00:55:58;;;;;;;0.20;0.20;;;;;;;;;;4841496;29;20060;-89
2021/07/29 00:58:26;;;;;;;0.10;0.10;;;;;;;;;;4826055;29;20091;-89
2021/07/29 01:00:52;;;;;;;0.10;0.10;;;;;;;;;;4825839;29;20554;-87
2021/07/29 01:03:18;;;;;;;0.10;0.10;;;;;;;;;;4825721;29;20073;-87
2021/07/29 01:05:44;;;;;;;0.10;0.10;;;;;;;;;;4825765;29;20045;-88
2021/07/29 01:08:10;;;;;;;0.15;0.15;;;;;;;;;;4840684;29;20042;-88
2021/07/29 01:10:36;;;;;;;0.10;0.10;;;;;;;;;;4825826;29;20042;-88
2021/07/29 01:13:02;;;;;;;0.10;0.10;;;;;;;;;;4840830;29;20050;-89
2021/07/29 01:15:28;;;;;;;0.10;0.10;;;;;;;;;;4825679;29;20073;-88
2021/07/29 01:18:23;;;;;;;0.10;0.10;;;;;;;;;;4825442;29;20049;-87
2021/07/29 01:20:49;;;;;;;0.10;0.10;;;;;;;;;;4840744;29;20502;-87
2021/07/29 01:23:15;;;;;;;0.10;0.10;;;;;;;;;;4841278;29;20394;-88
2021/07/29 01:25:41;;;;;;;0.10;0.10;;;;;;;;;;4840721;29;20189;-87
2021/07/29 01:28:07;;;;;;;0.10;0.10;;;;;;;;;;4840633;29;20034;-87
2021/07/29 01:30:33;;;;;;;0.10;0.10;;;;;;;;;;4825505;29;20049;-87
2021/07/29 01:33:01;;;;;;;0.13;0.13;;;;;;;;;;4825482;29;20050;-87
2021/07/29 01:35:27;;;;;;;0.10;0.10;;;;;;;;;;4840556;29;20178;-87
2021/07/29 01:37:53;;;;;;;0.10;0.10;;;;;;;;;;4825388;29;20041;-87
2021/07/29 01:40:19;;;;;;;0.10;0.10;;;;;;;;;;4825494;29;20052;-87
2021/07/29 01:42:45;;;;;;;0.10;0.10;;;;;;;;;;4825238;29;20038;-86
2021/07/29 01:45:11;;;;;;;0.20;0.20;;;;;;;;;;4825085;29;20091;-88
2021/07/29 01:47:37;;;;;;;0.10;0.10;;;;;;;;;;4840323;29;20042;-88
2021/07/29 01:50:05;;;;;;;0.10;0.10;;;;;;;;;;4825368;29;20041;-88
2021/07/29 01:52:32;;;;;;;0.10;0.10;;;;;;;;;;4825340;29;20566;-87
2021/07/29 01:54:59;;;;;;;0.20;0.20;;;;;;;;;;4840354;29;20038;-87
2021/07/29 01:57:26;;;;;;;0.20;0.20;;;;;;;;;;4824684;29;20062;-88
2021/07/29 01:59:52;;;;;;;0.10;0.10;;;;;;;;;;4825238;29;20452;-87
2021/07/29 02:02:18;;;;;;;0.40;0.40;;;;;;;;;;4840250;29;20038;-87
2021/07/29 02:04:44;;;;;;;0.10;0.10;;;;;;;;;;4825068;29;20038;-87
2021/07/29 02:07:10;;;;;;;0.40;0.40;;;;;;;;;;4809648;29;20463;-87
2021/07/29 02:09:38;;;;;;;0.10;0.10;;;;;;;;;;4810124;29;20102;-87
2021/07/29 02:12:04;;;;;;;0.10;0.10;;;;;;;;;;4839984;29;20049;-87
2021/07/29 02:14:31;;;;;;;0.10;0.10;;;;;;;;;;4824985;29;20048;-87
2021/07/29 02:16:57;;;;;;;0.20;0.20;;;;;;;;;;4824818;29;20415;-87
2021/07/29 02:19:23;;;;;;;0.10;0.10;;;;;;;;;;4824909;29;20052;-87
2021/07/29 02:21:49;;;;;;;0.13;0.13;;;;;;;;;;4824855;29;20463;-87
2021/07/29 02:24:15;;;;;;;0.10;0.10;;;;;;;;;;4824861;29;20046;-88
2021/07/29 02:26:41;;;;;;;0.10;0.10;;;;;;;;;;4824557;29;20585;-88
2021/07/29 02:29:07;;;;;;;0.20;0.20;;;;;;;;;;4840036;29;20053;-88
2021/07/29 02:31:33;;;;;;;0.10;0.10;;;;;;;;;;4824869;29;20046;-87
2021/07/29 02:34:00;;;;;;;0.20;0.20;;;;;;;;;;4840637;29;20080;-87
2021/07/29 02:36:26;;;;;;;0.20;0.20;;;;;;;;;;4843364;29;20066;-89
2021/07/29 02:38:53;;;;;;;0.20;0.20;;;;;;;;;;4828172;29;20057;-88
2021/07/29 02:41:19;;;;;;;0.10;0.10;;;;;;;;;;4843294;29;20041;-89
2021/07/29 02:43:46;;;;;;;0.10;0.10;;;;;;;;;;4827982;29;20065;-88
2021/07/29 02:46:12;;;;;;;0.20;0.20;;;;;;;;;;4828020;29;20077;-87
2021/07/29 02:48:38;;;;;;;0.10;0.10;;;;;;;;;;4827848;29;20041;-88
2021/07/29 02:51:06;;;;;;;0.10;0.10;;;;;;;;;;4828238;29;20046;-89
2021/07/29 02:53:34;;;;;;;0.10;0.10;;;;;;;;;;4828080;29;20044;-89
2021/07/29 02:56:00;;;;;;;0.10;0.10;;;;;;;;;;4844209;29;20094;-89
2021/07/29 02:58:26;;;;;;;0.10;0.10;;;;;;;;;;4827635;29;20212;-88
2021/07/29 03:00:55;;;;;;;0.10;0.10;;;;;;;;;;4843056;29;20440;-88
2021/07/29 03:03:21;;;;;;;0.10;0.10;;;;;;;;;;4827722;29;20114;-87
2021/07/29 03:05:48;;;;;;;0.10;0.10;;;;;;;;;;4842875;29;20046;-87
2021/07/29 03:08:14;;;;;;;0.20;0.20;;;;;;;;;;4827292;29;20053;-88
2021/07/29 03:10:40;;;;;;;0.10;0.10;;;;;;;;;;4827683;29;20076;-88
2021/07/29 03:13:06;;;;;;;0.10;0.10;;;;;;;;;;4827782;29;20045;-88
2021/07/29 03:15:33;;;;;;;0.10;0.10;;;;;;;;;;4843119;29;20079;-89
2021/07/29 03:17:59;;;;;;;0.10;0.10;;;;;;;;;;4812164;29;20050;-89
2021/07/29 03:20:25;;;;;;;0.10;0.10;;;;;;;;;;4827210;29;20082;-87
2021/07/29 03:22:51;;;;;;;0.20;0.20;;;;;;;;;;4827335;29;20045;-89
2021/07/29 03:25:17;;;;;;;0.10;0.10;;;;;;;;;;4827828;29;20497;-88
2021/07/29 03:27:43;;;;;;;0.10;0.10;;;;;;;;;;4827378;29;20050;-89
2021/07/29 03:30:09;;;;;;;0.10;0.10;;;;;;;;;;4827799;29;20564;-90
2021/07/29 03:32:35;;;;;;;0.10;0.10;;;;;;;;;;4827409;29;20064;-88
2021/07/29 03:35:01;;;;;;;0.10;0.10;;;;;;;;;;4842475;29;20057;-89
2021/07/29 03:37:27;;;;;;;0.10;0.10;;;;;;;;;;4827233;29;20601;-87
2021/07/29 03:39:53;;;;;;;0.10;0.10;;;;;;;;;;4827256;29;20065;-88
2021/07/29 03:42:22;;;;;;;0.10;0.10;;;;;;;;;;4842408;29;20044;-88
2021/07/29 03:44:48;;;;;;;0.10;0.10;;;;;;;;;;4826706;29;20499;-87
2021/07/29 03:47:14;;;;;;;0.10;0.10;;;;;;;;;;4826531;29;20124;-89
2021/07/29 03:49:40;;;;;;;0.10;0.10;;;;;;;;;;4827219;29;20498;-88
2021/07/29 03:52:07;;;;;;;0.10;0.10;;;;;;;;;;4842294;29;20487;-88
2021/07/29 03:54:33;;;;;;;0.10;0.10;;;;;;;;;;4842239;29;20046;-88
2021/07/29 03:56:59;;;;;;;0.10;0.10;;;;;;;;;;4841882;29;20076;-88
2021/07/29 03:59:25;;;;;;;0.10;0.10;;;;;;;;;;4826925;29;20042;-89
2021/07/29 04:01:52;;;;;;;0.13;0.13;;;;;;;;;;4827178;29;20046;-90
2021/07/29 04:04:18;;;;;;;0.10;0.10;;;;;;;;;;4826976;29;20046;-88
2021/07/29 04:06:44;;;;;;;0.10;0.10;;;;;;;;;;4826768;29;20042;-88
2021/07/29 04:09:10;;;;;;;0.10;0.10;;;;;;;;;;4811929;29;20050;-89
2021/07/29 04:11:36;;;;;;;0.10;0.10;;;;;;;;;;4826984;29;20080;-88
2021/07/29 04:14:02;;;;;;;0.10;0.10;;;;;;;;;;4811542;29;20061;-89
2021/07/29 04:16:28;;;;;;;0.10;0.10;;;;;;;;;;4841500;29;20034;-89
2021/07/29 04:18:54;;;;;;;0.10;0.10;;;;;;;;;;4841677;29;20050;-88
2021/07/29 04:21:20;;;;;;;0.10;0.10;;;;;;;;;;4841560;29;20048;-88
2021/07/29 04:23:46;;;;;;;0.10;0.10;;;;;;;;;;4841652;29;20375;-88
2021/07/29 04:26:12;;;;;;;0.10;0.10;;;;;;;;;;4826373;29;20058;-89
2021/07/29 04:28:38;;;;;;;0.10;0.10;;;;;;;;;;4826504;29;20054;-87
2021/07/29 04:31:04;;;;;;;0.10;0.10;;;;;;;;;;4841528;29;20102;-88
2021/07/29 04:33:30;;;;;;;0.10;0.10;;;;;;;;;;4842602;29;20042;-87
2021/07/29 04:35:56;;;;;;;0.47;0.20;;;;;;;;;;4826029;29;20057;-88
2021/07/29 04:38:22;;;;;;;0.10;0.10;;;;;;;;;;4826175;29;20591;-88
2021/07/29 04:40:48;;;;;;;0.10;0.10;;;;;;;;;;4826265;29;20049;-88
2021/07/29 04:43:14;;;;;;;0.10;0.10;;;;;;;;;;4826276;29;20042;-89
2021/07/29 04:45:40;;;;;;;0.10;0.10;;;;;;;;;;4826006;29;20426;-88
2021/07/29 04:48:06;;;;;;;0.20;0.20;;;;;;;;;;4825984;29;20106;-88
2021/07/29 04:50:32;;;;;;;0.10;0.10;;;;;;;;;;4825972;29;20256;-88
2021/07/29 04:53:00;;;;;;;0.10;0.10;;;;;;;;;;4826247;29;20128;-88
2021/07/29 04:55:26;;;;;;;0.10;0.10;;;;;;;;;;4841134;29;20044;-89
2021/07/29 04:57:52;;;;;;;0.10;0.10;;;;;;;;;;4825330;29;20094;-88
2021/07/29 05:00:19;;;;;;;0.10;0.10;;;;;;;;;;4826054;29;20074;-89
2021/07/29 05:02:45;;;;;;;0.10;0.10;;;;;;;;;;4825914;29;20048;-89
2021/07/29 05:05:11;;;;;;;0.10;0.10;;;;;;;;;;4841194;29;20056;-87
2021/07/29 05:07:37;;;;;;;0.10;0.10;;;;;;;;;;4825676;29;20033;-88
2021/07/29 05:10:03;;;;;;;0.17;0.17;;;;;;;;;;4825809;29;20098;-87
2021/07/29 05:12:29;;;;;;;0.10;0.10;;;;;;;;;;4827055;29;20037;-88
2021/07/29 05:14:56;;;;;;;0.10;0.10;;;;;;;;;;4825700;29;20129;-85
2021/07/29 05:17:23;;;;;;;0.20;0.20;;;;;;;;;;4825439;29;20140;-87
2021/07/29 05:19:49;;;;;;;0.20;0.20;;;;;;;;;;4840707;29;20048;-87
2021/07/29 05:22:15;;;;;;;0.10;0.10;;;;;;;;;;4825517;29;20038;-87
2021/07/29 05:24:41;;;;;;;0.10;0.10;;;;;;;;;;4825638;29;20042;-88
2021/07/29 05:27:09;;;;;;;0.20;0.20;;;;;;;;;;4840463;29;20516;-85
2021/07/29 05:29:36;;;;;;;0.20;0.20;;;;;;;;;;4825541;29;20041;-86
2021/07/29 05:32:02;;;;;;;0.15;0.15;;;;;;;;;;4840360;29;20038;-86
2021/07/29 05:34:28;;;;;;;0.13;0.13;;;;;;;;;;4840438;29;20073;-85
2021/07/29 05:36:54;;;;;;;0.10;0.10;;;;;;;;;;4825216;29;20613;-86
2021/07/29 05:39:23;;;;;;;0.15;0.15;;;;;;;;;;4841454;29;20102;-86
2021/07/29 05:41:49;;;;;;;0.10;0.10;;;;;;;;;;4825572;29;20053;-87
2021/07/29 05:44:15;;;;;;;0.20;0.20;;;;;;;;;;4840371;29;20096;-87
2021/07/29 05:46:41;;;;;;;0.10;0.10;;;;;;;;;;4825049;29;20057;-87
2021/07/29 05:49:07;;;;;;;0.17;0.17;;;;;;;;;;4809812;29;20050;-87
2021/07/29 05:51:33;;;;;;;0.10;0.10;;;;;;;;;;4825264;29;20046;-87
2021/07/29 05:54:00;;;;;;;0.10;0.10;;;;;;;;;;4825334;29;20106;-87
2021/07/29 05:56:28;;;;;;;0.10;0.10;;;;;;;;;;4825039;29;20042;-90
2021/07/29 05:58:54;;;;;;;0.10;0.10;;;;;;;;;;4825301;29;20050;-88
2021/07/29 06:01:22;;;;;;;0.10;0.10;;;;;;;;;;4825037;29;20049;-87
2021/07/29 06:03:48;;;;;;;0.10;0.10;;;;;;;;;;4841382;29;20049;-88
2021/07/29 06:06:14;;;;;;;0.20;0.20;;;;;;;;;;4825237;29;20071;-88
2021/07/29 06:08:40;;;;;;;0.10;0.10;;;;;;;;;;4840264;29;20042;-88
2021/07/29 06:11:06;;;;;;;0.20;0.20;;;;;;;;;;4828634;29;20521;-90
2021/07/29 06:13:32;;;;;;;0.10;0.10;;;;;;;;;;4845257;29;20463;-92
2021/07/29 06:16:01;;;;;;;0.30;0.30;;;;;;;;;;4828647;29;20061;-91
2021/07/29 06:18:27;;;;;;;0.10;0.10;;;;;;;;;;4828798;29;20129;-90
2021/07/29 06:20:53;;;;;;;0.40;0.40;;;;;;;;;;4813681;29;20126;-92
2021/07/29 06:23:19;;;;;;;0.20;0.20;;;;;;;;;;4828697;29;20081;-90
2021/07/29 06:25:45;;;;;;;0.20;0.20;;;;;;;;;;4828490;29;20045;-90
2021/07/29 06:28:13;;;;;;;0.30;0.30;;;;;;;;;;4828127;29;20095;-89
2021/07/29 06:30:42;;;;;;;0.20;0.20;;;;;;;;;;4827972;29;20167;-89
2021/07/29 06:33:08;;;;;;;0.10;0.10;;;;;;;;;;4827718;29;20563;-88
2021/07/29 06:35:34;;;;;;;0.10;0.10;;;;;;;;;;4843336;29;20124;-88
2021/07/29 06:38:01;;;;;;;0.30;0.30;;;;;;;;;;4827915;29;20124;-89
2021/07/29 06:40:27;;;;;;;0.10;0.10;;;;;;;;;;4828034;29;20038;-88
2021/07/29 06:42:53;;;;;;;0.10;0.10;;;;;;;;;;4826134;29;20042;-89
2021/07/29 06:45:19;;;;;;;0.20;0.20;;;;;;;;;;4824619;29;20045;-89
2021/07/29 06:47:45;;;;;;;0.10;0.10;;;;;;;;;;4810238;29;20462;-90
2021/07/29 06:50:12;;;;;;;0.20;0.20;;;;;;;;;;4780062;29;20095;-89
2021/07/29 06:52:38;;;;;;;0.10;0.10;;;;;;;;;;4809658;29;20069;-88
2021/07/29 06:55:06;;;;;;;0.20;0.20;;;;;;;;;;4802357;29;20103;-89
2021/07/29 06:57:32;;;;;;;0.15;0.15;;;;;;;;;;4827751;29;20042;-90
2021/07/29 06:59:58;;;;;;;0.10;0.10;;;;;;;;;;4813713;29;20554;-92
2021/07/29 07:02:24;;;;;;;0.10;0.10;;;;;;;;;;4828221;29;20049;-89
2021/07/29 07:04:50;;;;;;;0.10;0.10;;;;;;;;;;4812732;29;20050;-89
2021/07/29 07:07:16;;;;;;;0.20;0.20;;;;;;;;;;4812060;29;20494;-88
2021/07/29 07:09:42;;;;;;;0.30;0.30;;;;;;;;;;4827874;29;20045;-89
2021/07/29 07:12:08;;;;;;;0.10;0.10;;;;;;;;;;4812528;29;20042;-90
2021/07/29 07:14:35;;;;;;;0.10;0.10;;;;;;;;;;4812571;29;20045;-89
2021/07/29 07:17:01;;;;;;;1.08;0.30;;;;;;;;;;4812404;29;20077;-90
2021/07/29 07:19:27;;;;;;;1.13;0.35;;;;;;;;;;4812698;29;20084;-90
2021/07/29 07:21:53;;;;;;;0.10;0.10;;;;;;;;;;4811671;29;20112;-89
2021/07/29 07:24:22;;;;;;;0.20;0.20;;;;;;;;;;4812669;29;20065;-89
2021/07/29 07:26:48;;;;;;;0.13;0.13;;;;;;;;;;4827190;29;20239;-89
2021/07/29 07:29:14;;;;;;;0.10;0.10;;;;;;;;;;4812714;29;20034;-90
2021/07/29 07:31:40;;;;;;;0.10;0.10;;;;;;;;;;4812399;29;20042;-90
2021/07/29 07:34:06;;;;;;;0.10;0.10;;;;;;;;;;4812359;29;20065;-90
2021/07/29 07:36:32;;;;;;;0.20;0.20;;;;;;;;;;4827305;29;20376;-89
2021/07/29 07:38:58;;;;;;;0.10;0.10;;;;;;;;;;4812500;29;20417;-89
2021/07/29 07:41:24;;;;;;;0.20;0.20;;;;;;;;;;4797402;29;20050;-88
2021/07/29 07:43:50;;;;;;;0.20;0.20;;;;;;;;;;4827296;29;20038;-89
2021/07/29 07:46:16;;;;;;;0.28;0.28;;;;;;;;;;4812204;29;20493;-89
2021/07/29 07:48:42;;;;;;;0.10;0.10;;;;;;;;;;4811712;29;20045;-90
2021/07/29 07:51:08;;;;;;;0.20;0.20;;;;;;;;;;4826743;29;20453;-89
2021/07/29 07:53:34;;;;;;;1.45;0.75;;;;;;;;;;4827387;29;20042;-92
2021/07/29 07:56:04;;;;;;;0.40;0.40;;;;;;;;;;4796370;29;20050;-88
2021/07/29 07:58:31;;;;;;;0.20;0.20;;;;;;;;;;4826928;29;20034;-90
2021/07/29 08:00:57;;;;;;;0.10;0.10;;;;;;;;;;4811828;29;20478;-90
2021/07/29 08:03:23;;;;;;;0.10;0.10;;;;;;;;;;4811860;29;20045;-90
2021/07/29 08:05:49;;;;;;;0.10;0.10;;;;;;;;;;4811635;29;20057;-90
2021/07/29 08:08:15;;;;;;;0.10;0.10;;;;;;;;;;4811516;29;20220;-88
2021/07/29 08:10:41;;;;;;;0.10;0.10;;;;;;;;;;4811657;29;20044;-91
2021/07/29 08:13:07;;;;;;;0.10;0.10;;;;;;;;;;4811828;29;20495;-90
2021/07/29 08:15:34;;;;;;;0.10;0.10;;;;;;;;;;4811600;29;20053;-89
2021/07/29 08:18:00;;;;;;;0.10;0.10;;;;;;;;;;4811739;29;20045;-91
2021/07/29 08:20:26;;;;;;;0.20;0.20;;;;;;;;;;4812439;29;20046;-92
2021/07/29 08:22:55;;;;;;;0.10;0.10;;;;;;;;;;4811591;29;20094;-90
2021/07/29 08:25:21;;;;;;;0.10;0.10;;;;;;;;;;4811435;29;20046;-90
2021/07/29 08:27:51;;;;;;;0.30;0.30;;;;;;;;;;4810745;29;20057;-91
2021/07/29 08:30:17;;;;;;;0.55;0.30;;;;;;;;;;4811349;29;20037;-88
2021/07/29 08:32:44;;;;;;;0.17;0.17;;;;;;;;;;4811044;29;20079;-89
2021/07/29 08:35:10;;;;;;;0.20;0.20;;;;;;;;;;4826598;29;20034;-89
2021/07/29 08:37:37;;;;;;;0.10;0.10;;;;;;;;;;4825985;29;20146;-89
2021/07/29 08:40:03;;;;;;;0.10;0.10;;;;;;;;;;4826202;29;20046;-88
2021/07/29 08:42:31;;;;;;;0.13;0.13;;;;;;;;;;4826291;29;20487;-86
2021/07/29 08:44:57;;;;;;;0.13;0.13;;;;;;;;;;4811076;29;20498;-88
2021/07/29 08:47:26;;;;;;;0.15;0.15;;;;;;;;;;4810418;29;20073;-91
2021/07/29 08:49:55;;;;;;;0.20;0.20;;;;;;;;;;4812456;29;20092;-92
2021/07/29 08:52:22;;;;;;;0.20;0.20;;;;;;;;;;4796765;29;20105;-91
2021/07/29 08:54:48;;;;;;;0.32;0.32;;;;;;;;;;4826688;29;20038;-92
2021/07/29 08:57:34;;;;;;;0.10;0.10;;;;;;;;;;4812428;29;20069;-94
2021/07/29 09:00:09;;;;;;;0.20;0.20;;;;;;;;;;4799433;29;20455;-92
2021/07/29 09:02:35;;;;;;;0.20;0.20;;;;;;;;;;4800916;29;20060;-89
2021/07/29 09:05:17;;;;;;;0.17;0.17;;;;;;;;;;4826293;29;20041;-91
2021/07/29 09:08:03;;;;;;;0.20;0.20;;;;;;;;;;4811292;29;20053;-91
2021/07/29 09:10:29;;;;;;;0.20;0.20;;;;;;;;;;4795772;29;20414;-91
2021/07/29 09:13:17;;;;;;;0.35;0.35;;;;;;;;;;4810907;29;20052;-92
2021/07/29 09:15:43;;;;;;;0.20;0.20;;;;;;;;;;4811393;29;20054;-89
2021/07/29 09:18:09;;;;;;;0.20;0.20;;;;;;;;;;4812116;29;20080;-92
2021/07/29 09:20:35;;;;;;;0.10;0.10;;;;;;;;;;4810428;29;20038;-88
2021/07/29 09:23:34;;;;;;;0.20;0.20;;;;;;;;;;4810561;29;20042;-90
2021/07/29 09:26:00;;;;;;;0.65;0.55;;;;;;;;;;4792235;29;20050;-92
2021/07/29 09:28:36;;;;;;;0.15;0.15;;;;;;;;;;4811803;29;20556;-94
2021/07/29 09:31:19;;;;;;;0.15;0.15;;;;;;;;;;4796408;29;20504;-94
2021/07/29 09:33:58;;;;;;;0.20;0.20;;;;;;;;;;4811124;29;20104;-94
2021/07/29 09:36:24;;;;;;;0.20;0.20;;;;;;;;;;4826473;29;20073;-93
2021/07/29 09:38:51;;;;;;;0.20;0.20;;;;;;;;;;4811020;29;20071;-92
2021/07/29 09:41:23;;;;;;;0.20;0.20;;;;;;;;;;4795813;29;20057;-90
2021/07/29 09:43:50;;;;;;;0.20;0.20;;;;;;;;;;4825149;29;20113;-94
2021/07/29 09:46:19;;;;;;;0.20;0.20;;;;;;;;;;4816592;29;20049;-89
2021/07/29 09:48:45;;;;;;;0.10;0.10;;;;;;;;;;4825746;29;20042;-90
2021/07/29 09:51:12;;;;;;;0.30;0.20;;;;;;;;;;4825880;29;20414;-91
2021/07/29 09:53:38;;;;;;;0.57;0.57;;;;;;;;;;4825737;29;20042;-91
2021/07/29 09:56:08;;;;;;;0.20;0.20;;;;;;;;;;4825280;29;20046;-91
2021/07/29 09:58:37;;;;;;;0.10;0.10;;;;;;;;;;4825507;29;20075;-93
2021/07/29 10:01:03;;;;;;;0.20;0.20;;;;;;;;;;4810349;29;20455;-92
2021/07/29 10:03:30;;;;;;;0.10;0.10;;;;;;;;;;4825786;29;20094;-92
2021/07/29 10:06:02;;;;;;;0.35;0.35;;;;;;;;;;4825727;29;20126;-91
2021/07/29 10:08:37;;;;;;;0.25;0.25;;;;;;;;;;4825423;29;20038;-92
2021/07/29 10:11:07;;;;;;;0.30;0.30;;;;;;;;;;4840710;29;20571;-95
2021/07/29 10:13:34;;;;;;;0.20;0.20;;;;;;;;;;4825759;29;20128;-93
2021/07/29 10:16:00;;;;;;;0.22;0.22;;;;;;;;;;4825589;29;20503;-93
2021/07/29 10:18:26;;;;;;;0.20;0.20;;;;;;;;;;4811746;29;20144;-91
2021/07/29 10:21:12;;;;;;;0.10;0.10;;;;;;;;;;4827424;29;20065;-91
2021/07/29 10:23:47;;;;;;;0.20;0.20;;;;;;;;;;4810814;29;20050;-91
2021/07/29 10:26:14;;;;;;;0.20;0.20;;;;;;;;;;4813177;29;20087;-91
2021/07/29 10:28:41;;;;;;;0.10;0.10;;;;;;;;;;4826705;29;20497;-92
2021/07/29 10:31:08;;;;;;;0.20;0.20;;;;;;;;;;4825433;29;20038;-90
2021/07/29 10:33:34;;;;;;;0.20;0.20;;;;;;;;;;4810898;29;20053;-91
2021/07/29 10:36:01;;;;;;;0.17;0.17;;;;;;;;;;4825454;29;20151;-92
2021/07/29 10:38:39;;;;;;;0.10;0.10;;;;;;;;;;4810418;29;20394;-92
2021/07/29 10:41:16;;;;;;;0.20;0.20;;;;;;;;;;4842384;29;20118;-93
2021/07/29 10:43:42;;;;;;;0.10;0.10;;;;;;;;;;4823347;29;20512;-92
2021/07/29 10:46:11;;;;;;;0.20;0.20;;;;;;;;;;4809934;29;20062;-93
2021/07/29 10:48:44;;;;;;;0.10;0.10;;;;;;;;;;4823720;29;20113;-91
2021/07/29 10:51:12;;;;;;;0.20;0.20;;;;;;;;;;4841401;29;20170;-91
2021/07/29 10:53:41;;;;;;;0.28;0.28;;;;;;;;;;4825371;29;20042;-92
2021/07/29 10:56:08;;;;;;;0.30;0.30;;;;;;;;;;4795686;29;20395;-92
2021/07/29 10:58:50;;;;;;;0.20;0.20;;;;;;;;;;4813539;29;20346;-92
2021/07/29 11:01:17;;;;;;;0.10;0.10;;;;;;;;;;4828481;29;20109;-91
2021/07/29 11:03:53;;;;;;;0.32;0.32;;;;;;;;;;4828421;29;20128;-92
2021/07/29 11:06:28;;;;;;;0.10;0.10;;;;;;;;;;4814321;29;20056;-90
2021/07/29 11:08:54;;;;;;;0.20;0.20;;;;;;;;;;4828213;29;20106;-91
2021/07/29 11:11:20;;;;;;;0.20;0.20;;;;;;;;;;4828342;29;20440;-91
2021/07/29 11:13:47;;;;;;;0.47;0.47;;;;;;;;;;4812864;29;20037;-92
2021/07/29 11:16:13;;;;;;;0.10;0.10;;;;;;;;;;4813003;29;20042;-93
2021/07/29 11:18:39;;;;;;;0.10;0.10;;;;;;;;;;4812812;29;20080;-90
2021/07/29 11:21:14;;;;;;;0.20;0.20;;;;;;;;;;4797736;29;20056;-90
2021/07/29 11:23:40;;;;;;;0.20;0.20;;;;;;;;;;4827591;29;20042;-91
2021/07/29 11:26:06;;;;;;;0.20;0.20;;;;;;;;;;4812897;29;20125;-91
2021/07/29 11:28:33;;;;;;;0.20;0.20;;;;;;;;;;4812971;29;20471;-92
2021/07/29 11:30:59;;;;;;;3.83;0.75;;;;;;;;;;4812885;29;20509;-92
2021/07/29 11:33:25;;;;;;;0.20;0.20;;;;;;;;;;4813014;29;20041;-91
2021/07/29 11:35:51;;;;;;;0.20;0.20;;;;;;;;;;4812800;29;20041;-91
2021/07/29 11:38:18;;;;;;;0.20;0.20;;;;;;;;;;4812859;29;20057;-92
2021/07/29 11:40:44;;;;;;;0.20;0.20;;;;;;;;;;4813309;29;20044;-93
2021/07/29 11:43:20;;;;;;;0.17;0.17;;;;;;;;;;4828166;29;20042;-93
2021/07/29 11:45:46;;;;;;;0.10;0.10;;;;;;;;;;4812969;29;20061;-93
2021/07/29 11:48:22;;;;;;;0.38;0.38;;;;;;;;;;4812786;29;20094;-90
2021/07/29 11:50:48;;;;;;;0.10;0.10;;;;;;;;;;4824261;29;20483;-91
2021/07/29 11:53:14;;;;;;;0.70;0.63;;;;;;;;;;4793931;29;20046;-91
2021/07/29 11:55:40;;;;;;;0.20;0.20;;;;;;;;;;4794285;29;20068;-90
2021/07/29 11:58:06;;;;;;;0.20;0.20;;;;;;;;;;4794158;29;20042;-91
2021/07/29 12:00:34;;;;;;;0.52;0.52;;;;;;;;;;4794684;29;20058;-91
2021/07/29 12:03:01;;;;;;;0.10;0.10;;;;;;;;;;4794418;29;20049;-90
2021/07/29 12:05:27;;;;;;;0.20;0.20;;;;;;;;;;4808937;29;20388;-90
2021/07/29 12:07:53;;;;;;;0.20;0.20;;;;;;;;;;4808410;29;20095;-91
2021/07/29 12:10:19;;;;;;;0.20;0.20;;;;;;;;;;4809125;29;20039;-91
2021/07/29 12:12:46;;;;;;;0.20;0.20;;;;;;;;;;4793715;29;20038;-90
2021/07/29 12:15:15;;;;;;;1.20;0.60;;;;;;;;;;4808907;29;20509;-91
2021/07/29 12:17:41;;;;;;;0.20;0.20;;;;;;;;;;4793974;29;20053;-90
2021/07/29 12:20:07;;;;;;;0.30;0.30;;;;;;;;;;4793921;29;20103;-91
2021/07/29 12:22:42;;;;;;;0.20;0.20;;;;;;;;;;4808682;29;20124;-90
2021/07/29 12:25:09;;;;;;;0.50;0.50;;;;;;;;;;4795136;29;20038;-93
2021/07/29 12:27:46;;;;;;;0.10;0.10;;;;;;;;;;4793881;29;20047;-90
2021/07/29 12:30:32;;;;;;;0.50;0.50;;;;;;;;;;4794693;29;20058;-89
2021/07/29 12:33:05;;;;;;;0.28;0.28;;;;;;;;;;4807947;29;20046;-88
2021/07/29 12:35:31;;;;;;;0.10;0.10;;;;;;;;;;4793040;29;20107;-89
2021/07/29 12:37:58;;;;;;;0.20;0.20;;;;;;;;;;4793000;29;20042;-89
2021/07/29 12:40:25;;;;;;;0.20;0.20;;;;;;;;;;4793402;29;20042;-89
2021/07/29 12:42:51;;;;;;;0.28;0.28;;;;;;;;;;4808205;29;20069;-90
2021/07/29 12:45:17;;;;;;;0.20;0.20;;;;;;;;;;4789947;29;20427;-89
2021/07/29 12:48:03;;;;;;;0.20;0.20;;;;;;;;;;4804991;29;20055;-89
2021/07/29 12:50:35;;;;;;;0.10;0.10;;;;;;;;;;4804541;29;20055;-90
2021/07/29 12:53:11;;;;;;;0.20;0.20;;;;;;;;;;4805029;29;20488;-89
2021/07/29 12:55:56;;;;;;;0.10;0.10;;;;;;;;;;4805202;29;20047;-89
2021/07/29 12:58:39;;;;;;;0.15;0.15;;;;;;;;;;4774988;29;20453;-89
2021/07/29 13:01:08;;;;;;;0.80;0.75;;;;;;;;;;4790082;29;20063;-87
2021/07/29 13:03:35;;;;;;;0.50;0.50;;;;;;;;;;4804921;29;20455;-89
2021/07/29 13:06:01;;;;;;;0.20;0.20;;;;;;;;;;4804334;29;20415;-88
2021/07/29 13:08:27;;;;;;;0.20;0.20;;;;;;;;;;4804721;29;20077;-88
2021/07/29 13:10:57;;;;;;;0.10;0.10;;;;;;;;;;4789480;29;20054;-88
2021/07/29 13:13:27;;;;;;;0.20;0.20;;;;;;;;;;4804491;29;20105;-88
2021/07/29 13:15:54;;;;;;;0.10;0.10;;;;;;;;;;4803941;29;20492;-88
2021/07/29 13:18:20;;;;;;;0.20;0.20;;;;;;;;;;4803901;29;20043;-89
2021/07/29 13:20:46;;;;;;;0.20;0.20;;;;;;;;;;4804274;29;20065;-88
2021/07/29 13:23:15;;;;;;;0.20;0.20;;;;;;;;;;4789566;29;20559;-88
2021/07/29 13:25:42;;;;;;;0.20;0.20;;;;;;;;;;4789480;29;20043;-89
2021/07/29 13:28:08;;;;;;;0.30;0.30;;;;;;;;;;4804351;29;20121;-89
2021/07/29 13:30:34;;;;;;;0.10;0.10;;;;;;;;;;4810584;29;20046;-89
2021/07/29 13:33:00;;;;;;;0.20;0.20;;;;;;;;;;4826504;29;20041;-89
2021/07/29 13:35:26;;;;;;;0.10;0.10;;;;;;;;;;4837358;29;20407;-88
2021/07/29 13:37:52;;;;;;;0.20;0.20;;;;;;;;;;4822481;29;20046;-89
2021/07/29 13:40:18;;;;;;;0.20;0.20;;;;;;;;;;4837467;29;20483;-88
2021/07/29 13:42:47;;;;;;;0.20;0.20;;;;;;;;;;4807413;29;20057;-88
2021/07/29 13:45:16;;;;;;;0.20;0.20;;;;;;;;;;4822325;29;20515;-89
2021/07/29 13:47:43;;;;;;;0.20;0.20;;;;;;;;;;4837154;29;20419;-89
2021/07/29 13:50:09;;;;;;;0.10;0.10;;;;;;;;;;4822512;29;20491;-88
2021/07/29 13:52:35;;;;;;;0.20;0.20;;;;;;;;;;4837488;29;20459;-89
2021/07/29 13:55:02;;;;;;;0.10;0.10;;;;;;;;;;4837458;29;20220;-88
2021/07/29 13:57:28;;;;;;;0.13;0.13;;;;;;;;;;4821717;29;20085;-89
2021/07/29 13:59:55;;;;;;;0.57;0.57;;;;;;;;;;4822493;29;20056;-89
2021/07/29 14:02:28;;;;;;;0.20;0.20;;;;;;;;;;4822529;29;20053;-89
2021/07/29 14:04:54;;;;;;;0.10;0.10;;;;;;;;;;4822435;29;20050;-90
2021/07/29 14:07:20;;;;;;;0.20;0.20;;;;;;;;;;4822424;29;20099;-88
2021/07/29 14:09:46;;;;;;;0.10;0.10;;;;;;;;;;4837510;29;20042;-89
2021/07/29 14:12:13;;;;;;;0.20;0.20;;;;;;;;;;4805072;29;20540;-90
2021/07/29 14:14:40;;;;;;;0.63;0.45;;;;;;;;;;4807065;29;20419;-89
2021/07/29 14:17:14;;;;;;;0.10;0.10;;;;;;;;;;4821811;29;20073;-89
2021/07/29 14:20:00;;;;;;;0.20;0.20;;;;;;;;;;4803834;29;20051;-88
2021/07/29 14:25:10;;;;;;;0.20;0.20;;;;;;;;;;4817003;29;20043;-88
2021/07/29 14:27:36;;;;;;;0.10;0.10;;;;;;;;;;4803736;29;20066;-89
2021/07/29 14:30:03;;;;;;;0.22;0.22;;;;;;;;;;4804303;29;20062;-89
2021/07/29 14:32:29;;;;;;;0.10;0.10;;;;;;;;;;4822027;29;20411;-87
2021/07/29 14:34:55;;;;;;;0.10;0.10;;;;;;;;;;4807065;29;20043;-89
2021/07/29 14:37:21;;;;;;;0.10;0.10;;;;;;;;;;4821943;29;20480;-90
2021/07/29 14:39:47;;;;;;;0.20;0.20;;;;;;;;;;4822163;29;20122;-88
2021/07/29 14:42:13;;;;;;;0.20;0.20;;;;;;;;;;4822021;29;20527;-88
2021/07/29 14:44:48;;;;;;;0.17;0.17;;;;;;;;;;4821792;29;20043;-89
2021/07/29 14:49:59;;;;;;;0.17;0.17;;;;;;;;;;4819783;29;20043;-88
2021/07/29 14:52:27;;;;;;;0.20;0.20;;;;;;;;;;4821805;29;20099;-88